createdAt,value
2024-01-11T00:00:53.645Z,86.84
2024-01-11T00:03:22.314Z,85.89
2024-01-11T00:05:51.175Z,86.95
2024-01-11T00:08:20.057Z,86.93
2024-01-11T00:10:50.273Z,87.29
2024-01-11T00:13:19.110Z,87.34
2024-01-11T00:15:48.030Z,88.08
2024-01-11T00:18:16.855Z,88.35
2024-01-11T00:20:45.688Z,88.26
2024-01-11T00:23:14.449Z,88.04
2024-01-11T00:25:43.175Z,87.99
2024-01-11T00:28:13.260Z,87.79
2024-01-11T00:30:42.125Z,88.05
2024-01-11T00:33:11.141Z,88.68
2024-01-11T00:35:39.997Z,88.61
2024-01-11T00:38:08.923Z,88.51
2024-01-11T00:40:37.848Z,88.97
2024-01-11T00:43:06.801Z,89.72
2024-01-11T00:45:37.016Z,90.46
2024-01-11T00:48:07.075Z,90.47
2024-01-11T00:50:36.045Z,90.17
2024-01-11T00:53:05.445Z,90.10
2024-01-11T00:55:34.232Z,90.70
2024-01-11T00:58:03.353Z,90.87
2024-01-11T01:00:32.174Z,90.58
2024-01-11T01:03:02.370Z,91.37
2024-01-11T01:05:31.690Z,91.11
2024-01-11T01:08:00.842Z,91.28
2024-01-11T01:10:29.736Z,91.65
2024-01-11T01:12:58.495Z,92.69
2024-01-11T01:15:27.504Z,92.10
2024-01-11T01:17:56.563Z,91.88
2024-01-11T01:20:26.977Z,92.60
2024-01-11T01:22:56.287Z,92.54
2024-01-11T01:25:25.210Z,92.46
2024-01-11T01:27:57.455Z,91.87
2024-01-11T01:30:26.285Z,92.19
2024-01-11T01:32:55.246Z,91.70
2024-01-11T01:35:24.322Z,92.05
2024-01-11T01:37:54.503Z,92.08
2024-01-11T01:40:23.300Z,91.69
2024-01-11T01:42:52.003Z,92.26
2024-01-11T01:45:20.808Z,92.60
2024-01-11T01:47:49.612Z,92.20
2024-01-11T01:50:19.328Z,92.59
2024-01-11T01:52:48.398Z,92.21
2024-01-11T01:55:18.875Z,91.63
2024-01-11T01:57:48.478Z,91.41
2024-01-11T02:00:17.502Z,92.22
2024-01-11T02:02:47.449Z,91.94
2024-01-11T02:05:16.727Z,92.70
2024-01-11T02:07:46.463Z,92.42
2024-01-11T02:10:15.194Z,93.03
2024-01-11T02:12:45.576Z,93.55
2024-01-11T02:15:14.351Z,92.70
2024-01-11T02:17:43.496Z,93.27
2024-01-11T02:20:13.303Z,93.41
2024-01-11T02:22:45.254Z,93.29
2024-01-11T02:25:15.295Z,93.23
2024-01-11T02:27:48.382Z,93.39
2024-01-11T02:30:17.887Z,94.19
2024-01-11T02:32:48.329Z,93.69
2024-01-11T02:35:18.087Z,93.86
2024-01-11T02:37:47.097Z,93.63
2024-01-11T02:40:17.285Z,93.91
2024-01-11T02:42:46.129Z,94.16
2024-01-11T02:45:14.926Z,94.50
2024-01-11T02:47:43.775Z,94.47
2024-01-11T02:50:13.758Z,94.77
2024-01-11T02:52:42.550Z,94.60
2024-01-11T02:55:11.371Z,94.53
2024-01-11T02:57:41.409Z,94.94
2024-01-11T03:00:10.724Z,94.90
2024-01-11T03:02:40.179Z,95.15
2024-01-11T03:05:09.135Z,95.47
2024-01-11T03:07:37.878Z,95.56
2024-01-11T03:10:07.499Z,94.17
2024-01-11T03:12:36.179Z,94.52
2024-01-11T03:15:06.988Z,93.40
2024-01-11T03:17:36.809Z,93.96
2024-01-11T03:20:06.890Z,94.00
2024-01-11T03:22:35.816Z,93.36
2024-01-11T03:25:05.355Z,94.12
2024-01-11T03:27:34.068Z,94.47
2024-01-11T03:30:02.793Z,94.45
2024-01-11T03:32:32.939Z,94.57
2024-01-11T03:35:01.682Z,94.25
2024-01-11T03:37:30.439Z,94.62
2024-01-11T03:39:59.040Z,94.88
2024-01-11T03:42:27.825Z,95.00
2024-01-11T03:44:56.615Z,94.67
2024-01-11T03:47:25.350Z,93.98
2024-01-11T03:49:55.534Z,94.51
2024-01-11T03:52:24.201Z,93.85
2024-01-11T03:54:52.905Z,94.62
2024-01-11T03:57:21.703Z,94.15
2024-01-11T03:59:50.350Z,94.90
2024-01-11T04:02:19.087Z,94.74
2024-01-11T04:04:47.849Z,94.66
2024-01-11T04:07:18.160Z,95.64
2024-01-11T04:09:46.899Z,95.85
2024-01-11T04:12:15.625Z,96.33
2024-01-11T04:14:44.352Z,96.15
2024-01-11T04:17:13.216Z,96.71
2024-01-11T04:19:42.076Z,95.74
2024-01-11T04:22:10.758Z,96.05
2024-01-11T04:24:40.809Z,96.93
2024-01-11T04:27:09.512Z,96.57
2024-01-11T04:29:38.249Z,96.67
2024-01-11T04:32:07.307Z,96.62
2024-01-11T04:34:36.179Z,96.30
2024-01-11T04:37:05.429Z,96.34
2024-01-11T04:39:34.181Z,96.36
2024-01-11T04:42:04.476Z,96.67
2024-01-11T04:44:33.249Z,96.23
2024-01-11T04:47:02.362Z,96.08
2024-01-11T04:49:31.147Z,95.71
2024-01-11T04:51:59.838Z,95.51
2024-01-11T04:54:28.475Z,95.33
2024-01-11T04:56:57.152Z,95.40
2024-01-11T04:59:27.414Z,95.44
2024-01-11T05:01:56.222Z,95.16
2024-01-11T05:04:24.935Z,95.80
2024-01-11T05:06:53.826Z,95.47
2024-01-11T05:09:22.614Z,95.25
2024-01-11T05:11:51.326Z,95.24
2024-01-11T05:14:20.184Z,95.34
2024-01-11T05:16:51.465Z,95.40
2024-01-11T05:19:20.426Z,95.06
2024-01-11T05:21:49.178Z,95.36
2024-01-11T05:24:17.924Z,94.67
2024-01-11T05:26:48.056Z,95.42
2024-01-11T05:29:16.833Z,94.97
2024-01-11T05:31:45.731Z,94.55
2024-01-11T05:34:16.181Z,94.29
2024-01-11T05:36:45.136Z,94.77
2024-01-11T05:39:13.779Z,94.40
2024-01-11T05:41:45.832Z,95.13
2024-01-11T05:44:14.635Z,94.89
2024-01-11T05:46:43.434Z,95.24
2024-01-11T05:49:12.253Z,94.20
2024-01-11T05:51:42.287Z,94.21
2024-01-11T05:54:11.016Z,94.16
2024-01-11T05:56:39.839Z,94.08
2024-01-11T05:59:08.676Z,94.01
2024-01-11T06:01:43.153Z,93.68
2024-01-11T06:04:12.038Z,94.14
2024-01-11T06:06:42.443Z,94.73
2024-01-11T06:09:11.263Z,94.58
2024-01-11T06:11:40.058Z,94.76
2024-01-11T06:14:09.383Z,95.48
2024-01-11T06:16:38.114Z,95.72
2024-01-11T06:19:08.432Z,95.79
2024-01-11T06:21:37.550Z,95.60
2024-01-11T06:24:07.745Z,95.35
2024-01-11T06:26:36.489Z,95.26
2024-01-11T06:29:05.357Z,94.92
2024-01-11T06:31:34.096Z,94.80
2024-01-11T06:34:02.922Z,94.90
2024-01-11T06:36:32.214Z,94.94
2024-01-11T06:39:00.945Z,95.25
2024-01-11T06:41:31.033Z,94.99
2024-01-11T06:44:01.883Z,95.24
2024-01-11T06:46:31.277Z,95.30
2024-01-11T06:49:00.214Z,94.91
2024-01-11T06:51:29.041Z,94.59
2024-01-11T06:53:57.731Z,95.44
2024-01-11T06:56:26.445Z,94.14
2024-01-11T06:58:57.016Z,94.33
2024-01-11T07:01:26.697Z,94.07
2024-01-11T07:03:55.489Z,94.47
2024-01-11T07:06:24.335Z,94.51
2024-01-11T07:08:53.345Z,95.31
2024-01-11T07:11:22.184Z,94.30
2024-01-11T07:13:50.942Z,93.67
2024-01-11T07:16:21.598Z,93.50
2024-01-11T07:18:50.591Z,93.29
2024-01-11T07:21:30.436Z,93.62
2024-01-11T07:23:59.921Z,93.39
2024-01-11T07:26:29.303Z,93.06
2024-01-11T07:28:58.203Z,93.23
2024-01-11T07:31:28.372Z,93.40
2024-01-11T07:33:57.193Z,93.52
2024-01-11T07:36:26.062Z,93.29
2024-01-11T07:38:55.245Z,92.71
2024-01-11T07:41:24.356Z,93.06
2024-01-11T07:43:54.772Z,94.08
2024-01-11T07:46:33.058Z,94.05
2024-01-11T07:49:09.373Z,93.52
2024-01-11T07:51:38.406Z,93.36
2024-01-11T07:54:07.312Z,93.74
2024-01-11T07:56:36.447Z,93.28
2024-01-11T07:59:05.604Z,92.93
2024-01-11T08:01:36.583Z,93.03
2024-01-11T08:04:05.947Z,93.09
2024-01-11T08:06:36.153Z,92.84
2024-01-11T08:09:06.215Z,92.68
2024-01-11T08:11:37.034Z,92.48
2024-01-11T08:14:07.820Z,92.54
2024-01-11T08:16:36.965Z,93.58
2024-01-11T08:19:05.852Z,93.79
2024-01-11T08:21:35.954Z,93.51
2024-01-11T08:24:05.048Z,93.99
2024-01-11T08:26:33.929Z,93.01
2024-01-11T08:29:03.414Z,93.31
2024-01-11T08:31:32.221Z,93.00
2024-01-11T08:34:01.191Z,93.42
2024-01-11T08:36:35.312Z,93.61
2024-01-11T08:39:06.781Z,93.93
2024-01-11T08:41:36.438Z,93.19
2024-01-11T08:44:06.727Z,93.46
2024-01-11T08:46:36.037Z,93.75
2024-01-11T08:49:05.408Z,93.71
2024-01-11T08:51:34.414Z,94.08
2024-01-11T08:54:03.207Z,94.24
2024-01-11T08:56:33.381Z,94.75
2024-01-11T08:59:02.266Z,94.43
2024-01-11T09:01:31.108Z,94.71
2024-01-11T09:04:00.351Z,94.66
2024-01-11T09:06:29.162Z,94.82
2024-01-11T09:08:58.097Z,94.29
2024-01-11T09:11:26.997Z,94.60
2024-01-11T09:13:58.213Z,94.84
2024-01-11T09:16:27.012Z,94.67
2024-01-11T09:18:55.894Z,94.37
2024-01-11T09:21:24.830Z,94.47
2024-01-11T09:23:53.607Z,94.43
2024-01-11T09:26:23.638Z,94.59
2024-01-11T09:28:52.466Z,94.11
2024-01-11T09:31:22.566Z,94.17
2024-01-11T09:33:51.681Z,93.73
2024-01-11T09:36:20.503Z,92.63
2024-01-11T09:38:49.819Z,92.94
2024-01-11T09:41:18.958Z,93.22
2024-01-11T09:43:48.088Z,93.58
2024-01-11T09:46:17.885Z,92.95
2024-01-11T09:48:49.299Z,92.34
2024-01-11T09:51:18.165Z,91.84
2024-01-11T09:53:47.190Z,92.29
2024-01-11T09:56:17.718Z,91.92
2024-01-11T09:58:49.883Z,91.64
2024-01-11T10:01:18.925Z,91.72
2024-01-11T10:03:49.155Z,90.75
2024-01-11T10:06:19.629Z,90.21
2024-01-11T10:08:48.440Z,90.17
2024-01-11T10:11:17.253Z,89.68
2024-01-11T10:13:46.226Z,89.97
2024-01-11T10:16:16.716Z,89.89
2024-01-11T10:18:45.953Z,89.85
2024-01-11T10:21:17.348Z,90.37
2024-01-11T10:23:46.149Z,90.00
2024-01-11T10:26:17.575Z,89.98
2024-01-11T10:28:47.221Z,89.67
2024-01-11T10:31:17.159Z,88.80
2024-01-11T10:33:47.396Z,89.00
2024-01-11T10:36:17.628Z,88.49
2024-01-11T10:38:48.053Z,88.87
2024-01-11T10:41:20.672Z,88.43
2024-01-11T10:43:50.902Z,87.88
2024-01-11T10:46:23.334Z,88.47
2024-01-11T10:48:56.394Z,88.28
2024-01-11T10:51:28.032Z,87.45
2024-01-11T10:53:57.970Z,87.17
2024-01-11T10:56:29.262Z,86.74
2024-01-11T10:58:59.124Z,86.56
2024-01-11T11:01:28.242Z,86.46
2024-01-11T11:03:57.720Z,86.64
2024-01-11T11:06:29.492Z,85.81
2024-01-11T11:09:00.223Z,85.94
2024-01-11T11:11:30.250Z,84.82
2024-01-11T11:13:59.841Z,84.89
2024-01-11T11:16:28.923Z,84.37
2024-01-11T11:18:58.492Z,84.79
2024-01-11T11:21:29.087Z,84.76
2024-01-11T11:23:58.488Z,83.94
2024-01-11T11:26:28.847Z,84.00
2024-01-11T11:28:57.624Z,83.64
2024-01-11T11:31:37.245Z,84.07
2024-01-11T11:34:07.190Z,83.23
2024-01-11T11:36:37.546Z,83.22
2024-01-11T11:39:06.333Z,82.67
2024-01-11T11:41:35.110Z,83.54
2024-01-11T11:44:04.461Z,82.36
2024-01-11T11:46:34.163Z,82.87
2024-01-11T11:49:02.978Z,82.41
2024-01-11T11:51:31.835Z,82.25
2024-01-11T11:54:02.247Z,80.90
2024-01-11T11:56:31.879Z,79.28
2024-01-11T11:59:01.189Z,79.68
2024-01-11T12:01:30.573Z,79.76
2024-01-11T12:03:59.565Z,79.22
2024-01-11T12:06:30.319Z,78.70
2024-01-11T12:08:59.201Z,77.28
2024-01-11T12:11:29.738Z,77.78
2024-01-11T12:13:59.600Z,77.49
2024-01-11T12:16:29.717Z,76.62
2024-01-11T12:18:58.678Z,76.08
2024-01-11T12:21:28.203Z,76.02
2024-01-11T12:23:57.124Z,76.04
2024-01-11T12:26:26.019Z,76.70
2024-01-11T12:28:56.332Z,77.14
2024-01-11T12:31:25.353Z,76.31
2024-01-11T12:33:55.314Z,76.19
2024-01-11T12:36:24.248Z,75.98
2024-01-11T12:38:53.905Z,74.46
2024-01-11T12:41:24.650Z,73.74
2024-01-11T12:43:54.489Z,74.53
2024-01-11T12:46:24.782Z,74.18
2024-01-11T12:48:53.898Z,74.62
2024-01-11T12:51:23.800Z,73.12
2024-01-11T12:53:54.679Z,73.78
2024-01-11T12:56:24.537Z,73.74
2024-01-11T12:58:53.625Z,72.27
2024-01-11T13:01:23.927Z,71.96
2024-01-11T13:03:53.517Z,71.93
2024-01-11T13:06:22.423Z,71.25
2024-01-11T13:08:51.610Z,71.13
2024-01-11T13:11:22.356Z,70.48
2024-01-11T13:13:51.225Z,70.84
2024-01-11T13:16:20.527Z,70.44
2024-01-11T13:18:50.765Z,71.03
2024-01-11T13:21:19.634Z,68.49
2024-01-11T13:23:48.483Z,69.29
2024-01-11T13:26:17.415Z,68.89
2024-01-11T13:28:46.185Z,69.64
2024-01-11T13:31:15.024Z,69.10
2024-01-11T13:33:43.892Z,69.11
2024-01-11T13:36:14.019Z,68.10
2024-01-11T13:38:43.204Z,68.00
2024-01-11T13:41:12.363Z,66.80
2024-01-11T13:43:41.080Z,67.36
2024-01-11T13:46:10.130Z,68.07
2024-01-11T13:48:39.042Z,68.65
2024-01-11T13:51:10.143Z,68.17
2024-01-11T13:53:40.398Z,67.56
2024-01-11T13:56:09.214Z,69.57
2024-01-11T13:58:38.349Z,69.07
2024-01-11T14:01:08.698Z,69.20
2024-01-11T14:03:37.558Z,67.78
2024-01-11T14:06:07.224Z,69.04
2024-01-11T14:08:36.464Z,69.92
2024-01-11T14:11:07.144Z,69.61
2024-01-11T14:13:36.018Z,70.50
2024-01-11T14:16:06.303Z,69.12
2024-01-11T14:18:35.365Z,69.66
2024-01-11T14:21:04.471Z,70.18
2024-01-11T14:23:33.499Z,70.02
2024-01-11T14:26:02.399Z,69.59
2024-01-11T14:28:32.551Z,70.07
2024-01-11T14:31:01.405Z,70.95
2024-01-11T14:33:30.493Z,70.91
2024-01-11T14:35:59.624Z,71.21
2024-01-11T14:38:28.696Z,70.40
2024-01-11T14:40:57.811Z,70.68
2024-01-11T14:43:26.640Z,71.61
2024-01-11T14:45:57.269Z,73.08
2024-01-11T14:48:26.210Z,72.26
2024-01-11T14:50:56.252Z,72.68
2024-01-11T14:53:25.226Z,72.35
2024-01-11T14:55:54.234Z,71.40
2024-01-11T14:58:23.126Z,72.67
2024-01-11T15:00:53.019Z,73.61
2024-01-11T15:03:23.128Z,74.15
2024-01-11T15:05:53.641Z,74.44
2024-01-11T15:08:22.453Z,74.12
2024-01-11T15:10:51.324Z,75.12
2024-01-11T15:13:20.091Z,74.66
2024-01-11T15:15:48.911Z,74.80
2024-01-11T15:18:17.886Z,74.63
2024-01-11T15:20:48.397Z,74.75
2024-01-11T15:23:18.289Z,75.73
2024-01-11T15:25:47.394Z,76.35
2024-01-11T15:28:16.238Z,76.21
2024-01-11T15:30:45.258Z,76.60
2024-01-11T15:33:15.921Z,76.03
2024-01-11T15:35:44.913Z,76.17
2024-01-11T15:38:15.396Z,77.22
2024-01-11T15:40:44.790Z,75.99
2024-01-11T15:43:13.609Z,76.38
2024-01-11T15:45:42.441Z,77.39
2024-01-11T15:48:11.387Z,77.18
2024-01-11T15:50:40.233Z,76.85
2024-01-11T15:53:09.524Z,77.66
2024-01-11T15:55:40.083Z,76.37
2024-01-11T15:58:10.025Z,77.88
2024-01-11T16:00:38.922Z,78.00
2024-01-11T16:03:08.038Z,78.35
2024-01-11T16:05:38.752Z,78.34
2024-01-11T16:08:09.495Z,78.55
2024-01-11T16:10:39.705Z,78.22
2024-01-11T16:13:08.536Z,78.53
2024-01-11T16:15:37.343Z,77.88
2024-01-11T16:18:06.898Z,78.50
2024-01-11T16:20:36.275Z,77.69
2024-01-11T16:23:05.475Z,77.81
2024-01-11T16:25:34.339Z,78.01
2024-01-11T16:28:04.780Z,78.69
2024-01-11T16:30:33.680Z,78.99
2024-01-11T16:33:02.593Z,77.92
2024-01-11T16:35:34.708Z,78.98
2024-01-11T16:38:07.687Z,80.12
2024-01-11T16:40:36.571Z,80.65
2024-01-11T16:43:06.824Z,80.65
2024-01-11T16:45:37.604Z,81.43
2024-01-11T16:48:11.202Z,81.58
2024-01-11T16:50:40.149Z,81.26
2024-01-11T16:53:08.873Z,81.93
2024-01-11T16:55:37.489Z,81.50
2024-01-11T16:58:07.495Z,81.45
2024-01-11T17:00:37.161Z,81.60
2024-01-11T17:03:06.805Z,81.85
2024-01-11T17:05:36.252Z,81.25
2024-01-11T17:08:06.027Z,81.92
2024-01-11T17:10:37.914Z,81.44
2024-01-11T17:13:08.242Z,80.77
2024-01-11T17:15:37.519Z,81.01
2024-01-11T17:18:06.751Z,81.44
2024-01-11T17:20:35.557Z,81.96
2024-01-11T17:23:04.625Z,81.69
2024-01-11T17:25:33.629Z,81.88
2024-01-11T17:28:02.444Z,81.83
2024-01-11T17:30:32.685Z,82.35
2024-01-11T17:33:01.709Z,82.34
2024-01-11T17:35:30.827Z,81.81
2024-01-11T17:37:59.679Z,81.92
2024-01-11T17:40:30.557Z,82.80
2024-01-11T17:43:00.981Z,82.13
2024-01-11T17:45:29.874Z,83.25
2024-01-11T17:48:00.132Z,82.62
2024-01-11T17:50:29.218Z,83.57
2024-01-11T17:52:58.049Z,83.13
2024-01-11T17:55:26.824Z,82.59
2024-01-11T17:57:55.673Z,83.14
2024-01-11T18:00:24.534Z,83.05
2024-01-11T18:02:53.898Z,83.92
2024-01-11T18:05:24.351Z,83.35
2024-01-11T18:07:56.696Z,83.56
2024-01-11T18:10:25.633Z,83.77
2024-01-11T18:12:54.564Z,83.40
2024-01-11T18:15:23.420Z,84.01
2024-01-11T18:17:52.332Z,84.33
2024-01-11T18:20:21.217Z,83.69
2024-01-11T18:22:52.188Z,85.01
2024-01-11T18:25:21.031Z,84.53
2024-01-11T18:27:49.827Z,84.92
2024-01-11T18:30:18.757Z,85.20
2024-01-11T18:32:48.079Z,85.69
2024-01-11T18:35:17.206Z,85.35
2024-01-11T18:37:46.075Z,85.48
2024-01-11T18:40:16.463Z,85.71
2024-01-11T18:42:45.241Z,85.48
2024-01-11T18:45:14.207Z,85.23
2024-01-11T18:47:43.115Z,85.26
2024-01-11T18:50:12.138Z,84.39
2024-01-11T18:52:42.761Z,85.55
2024-01-11T18:55:16.808Z,87.11
2024-01-11T18:57:47.950Z,87.01
2024-01-11T19:00:17.716Z,86.83
2024-01-11T19:02:49.404Z,86.76
2024-01-11T19:05:20.316Z,86.49
2024-01-11T19:07:49.262Z,87.02
2024-01-11T19:10:18.259Z,86.74
2024-01-11T19:12:48.686Z,87.70
2024-01-11T19:15:17.903Z,87.41
2024-01-11T19:17:47.151Z,86.97
2024-01-11T19:20:16.632Z,87.03
2024-01-11T19:22:45.608Z,88.45
2024-01-11T19:25:14.814Z,88.64
2024-01-11T19:27:43.634Z,88.82
2024-01-11T19:30:15.040Z,88.91
2024-01-11T19:32:44.505Z,87.92
2024-01-11T19:35:13.473Z,87.34
2024-01-11T19:37:42.321Z,86.88
2024-01-11T19:40:11.655Z,87.42
2024-01-11T19:42:40.399Z,87.90
2024-01-11T19:45:09.932Z,88.06
2024-01-11T19:47:40.546Z,88.11
2024-01-11T19:50:10.887Z,87.14
2024-01-11T19:52:39.758Z,87.58
2024-01-11T19:55:09.286Z,87.62
2024-01-11T19:57:38.100Z,87.89
2024-01-11T20:00:08.490Z,88.44
2024-01-11T20:02:38.226Z,89.15
2024-01-11T20:05:08.749Z,90.02
2024-01-11T20:07:37.532Z,89.46
2024-01-11T20:10:07.034Z,90.43
2024-01-11T20:12:35.838Z,90.92
2024-01-11T20:15:05.277Z,90.72
2024-01-11T20:17:34.725Z,90.84
2024-01-11T20:20:04.870Z,90.24
2024-01-11T20:22:35.490Z,90.65
2024-01-11T20:25:04.361Z,90.01
2024-01-11T20:27:33.142Z,90.85
2024-01-11T20:30:02.224Z,90.42
2024-01-11T20:32:31.322Z,89.89
2024-01-11T20:35:00.264Z,90.18
2024-01-11T20:37:29.028Z,89.77
2024-01-11T20:39:59.542Z,90.42
2024-01-11T20:42:28.374Z,90.42
2024-01-11T20:44:57.263Z,90.52
2024-01-11T20:47:27.243Z,90.66
2024-01-11T20:49:56.442Z,91.15
2024-01-11T20:52:25.224Z,90.76
2024-01-11T20:54:54.243Z,91.32
2024-01-11T20:57:24.584Z,91.60
2024-01-11T20:59:53.455Z,92.20
2024-01-11T21:02:22.382Z,92.32
2024-01-11T21:04:51.212Z,92.37
2024-01-11T21:07:19.976Z,92.18
2024-01-11T21:09:50.055Z,92.71
2024-01-11T21:12:18.947Z,92.13
2024-01-11T21:14:49.220Z,92.80
2024-01-11T21:17:19.301Z,92.98
2024-01-11T21:19:49.961Z,93.09
2024-01-11T21:22:20.605Z,92.00
2024-01-11T21:24:49.893Z,92.47
2024-01-11T21:27:18.734Z,92.82
2024-01-11T21:29:49.036Z,94.30
2024-01-11T21:32:17.906Z,94.03
2024-01-11T21:34:46.778Z,93.36
2024-01-11T21:37:15.554Z,93.14
2024-01-11T21:39:44.414Z,94.08
2024-01-11T21:42:13.221Z,93.74
2024-01-11T21:44:42.125Z,93.56
2024-01-11T21:47:12.445Z,93.80
2024-01-11T21:49:41.286Z,94.55
2024-01-11T21:52:10.105Z,94.67
2024-01-11T21:54:38.940Z,93.93
2024-01-11T21:57:07.783Z,93.49
2024-01-11T21:59:37.238Z,93.91
2024-01-11T22:02:06.035Z,94.35
2024-01-11T22:04:36.198Z,93.63
2024-01-11T22:07:05.479Z,94.18
2024-01-11T22:09:34.373Z,94.53
2024-01-11T22:12:03.322Z,94.78
2024-01-11T22:14:32.240Z,95.49
2024-01-11T22:17:01.115Z,94.61
2024-01-11T22:19:29.946Z,95.02
2024-01-11T22:22:00.180Z,95.08
2024-01-11T22:24:29.150Z,94.89
2024-01-11T22:26:57.975Z,94.83
2024-01-11T22:29:26.800Z,95.07
2024-01-11T22:31:55.858Z,94.91
2024-01-11T22:34:25.711Z,95.40
2024-01-11T22:36:54.615Z,95.45
2024-01-11T22:39:24.756Z,96.15
2024-01-11T22:41:53.499Z,96.58
2024-01-11T22:44:22.339Z,96.80
2024-01-11T22:46:51.251Z,95.74
2024-01-11T22:49:20.194Z,96.49
2024-01-11T22:51:49.052Z,97.10
2024-01-11T22:54:17.767Z,97.59
2024-01-11T22:56:47.927Z,97.01
2024-01-11T22:59:16.871Z,96.72
2024-01-11T23:01:45.631Z,97.43
2024-01-11T23:04:14.436Z,97.99
2024-01-11T23:06:43.342Z,98.14
2024-01-11T23:09:12.727Z,97.83
2024-01-11T23:11:41.680Z,97.38
2024-01-11T23:14:11.932Z,97.35
2024-01-11T23:16:40.934Z,97.16
2024-01-11T23:19:09.810Z,96.81
2024-01-11T23:21:38.734Z,96.76
2024-01-11T23:24:07.718Z,96.70
2024-01-11T23:26:36.541Z,96.68
2024-01-11T23:29:05.657Z,96.37
2024-01-11T23:31:35.832Z,96.08
2024-01-11T23:34:05.217Z,96.50
2024-01-11T23:36:34.107Z,96.50
2024-01-11T23:39:03.131Z,96.71
2024-01-11T23:41:31.958Z,96.20
2024-01-11T23:44:00.696Z,96.41
2024-01-11T23:46:29.510Z,96.58
2024-01-11T23:48:59.840Z,96.78
2024-01-11T23:51:28.705Z,96.67
2024-01-11T23:53:57.641Z,97.07
2024-01-11T23:56:26.391Z,97.04
2024-01-11T23:58:55.179Z,96.58
